< < Back
Terminal Aerodrome Forecast


Current Version              Previous Versions:   1  2  3  4  5  6  7  8  9  

Terminal Aerodrome Forecast

464
FTUS44 KMOB 292330
TAFMOB
TAF
KMOB 292330Z 3000/3024 14006KT P6SM FEW050 BKN190
     FM301000 00000KT 5SM BR SCT250
     FM301300 04004KT P6SM SCT250=



Latest METAR

891
SAUS80 KWBC 301700 RRA
MTRMOB
METAR KMOB 301656Z VRB05KT 10SM SCT030 BKN180 30/21 A3008 RMK AO2 SLP182
T03000206


USA.gov is the U.S. government's official web portal to all federal, state and local government web resources and services.